My Meet Scores
Mia Almeida, Phenom Gymnastics - MyMeetScores.com
Top100 | Top Teams | Upcoming Meets | Completed Meets | Latest | Add Scores | Help| Support | Bookmark and Share

Mia Almeida, Phenom Gymnastics
Personal Bests
LevelVault BarsBeamFloorAA
39.3759.150 9.4009.57537.175
49.2009.375 9.6509.45037.625
59.3759.425 9.6009.37537.350
79.2759.150 9.0009.45036.100
Meet Scores
Date Meet Team Session Level Division Vault Bars Beam Floor AA
2019-03-29 Illinois Level 7 & 8 State Meet Phenom Gymnastics 7 7 Jr E 8.900 23T 6.100 25 9.000 17 9.350 14T 33.350 25
2019-03-01 NGCD Academy's 2019 Flip'r Invitational Phenom Gymnastics 6 7 Jr B 9.275 4T 8.800 8 8.575 11 9.450 4 36.100 8
2019-02-23 Kinetic Classic 2019 Phenom Gymnastics 1 7 Younger 9.000 7 7.150 14 8.675 15 9.025 11 33.850 15
2019-02-01 The Big Chill Phenom Gymnastics 5 7 10 & 11 yr 8.625 11 9.150 8 8.600 11T 9.275 8 35.650 10
2019-01-18 2019 Bravo Classic Phenom Gymnastics 10A 7 Jr 7.900 17 8.350 13T 8.625 14 9.400 7T 34.275 14
2018-12-14 2018 Aspire Classic Phenom Gymnastics 11B 7 Middle 8.200 18 7.950 15 8.400 14 9.250 9 33.800 16
2018-03-08 Level 4 & 5 State Phenom Gymnastics 11 5 Jr B 9.200 16 8.375 24 9.600 2 9.375 1T 36.550 11T
2018-02-16 Big Classic Phenom Gymnastics 4A 5 Child C 8.600 7 8.950 6 9.000 4 9.225 4 35.775 4
2018-01-19 2018 Bravo Classic Phenom Gymnastics 3B 5 Jr 9.375 5T 9.425 2 9.500 4 9.050 14 37.350 3
2017-12-15 2017 Aspire Classic Phenom Gymnastics 5A 5 Younger 8.650 15 8.400 15 9.525 2 8.850 14T 35.425 11T
2017-11-16 Paul Hamm Thanksgiving Classic - Women Phenom Gymnastics 8 5 Older 9.200 10T 8.750 19T 9.500 4T 9.000 9 36.450 8
2017-03-10 2017 Illinois Level 4 State Championships Premier Gymnastics Academy West 3 4 Youth C 8.750 18T 9.350 4* 9.475 4T 9.175 8 36.750 4T
2017-02-18 2017 Great Western Invitational Women's Premier Gymnastics Academy West 5 4 Pony 8.350 10 9.250 4 8.875 13T 9.000 8 35.475 8
2017-01-27 2017 UGA Invitational Premier Gymnastics Academy West C10 4 Junior 9.150 1 9.375 8 9.650 1 9.450 3 37.625 1
2017-01-13 St Jude Benefit Meet Premier Gymnastics Academy West 4A 4 Jr B 8.500 8T 8.850 11 9.350 3* 9.325 1 36.025 4T
2016-12-16 2016 Aspire Classic Premier Gymnastics Academy West 6 4 Middle 9.050 4 9.200 6 8.450 17 9.450 3 36.150 6T
2016-12-09 St. Nick Invite Premier Gymnastics Academy West 7 4 JrB 8.700 11 8.200 13 9.300 4T 8.725 11 34.925 13
2016-11-19 Paul Hamm Thanksgiving Classic - 2016 Girls Premier Gymnastics Academy West 7 4 9 yrs 8.300 17 9.050 5 9.200 11T 9.000 10T 35.550 8
2016-03-10 2016 Illinois Level 4 State Meet Premier Gymnastics Academy West All 4 Child-D 9.200 3 8.250 22 8.975 16 8.875 16 35.300 13
2016-02-13 Western Invite Premier Gymnastics Academy West 3 4 Filly 8.500 6T 9.000 12 9.100 5T 9.075 7 35.675 6T
2016-01-22 King Arthur Invitational Premier Gymnastics Academy West S16 4 Jr.A 8.675 8 8.600 16 8.825 14 8.950 9 35.050 13
2016-01-08 Leendas Island Adventure Premier Gymnastics Academy West Pink11 4 8 and Unde 7.450 14 8.300 13 8.350 14T 9.300 2 33.400 13
2015-03-12 2015 Illinois Level 3 State Championship Naperville Gymnastics Club All 3 Child-E 9.375 12 8.550 20 9.050 5 9.575 3 36.550 8
2015-02-21 BIG Classic Naperville Gymnastics Club 3A 3 Child A 9.275 3 8.750 4T 9.400 1 9.450 2T 36.875 1
2015-01-30 World Class Gateway Challenge 2015 Naperville Gymnastics Club 1B 3 7 & under 9.000 9T 8.550 11T 9.000 1 9.325 2 35.875 2
2014-03-07 Illinois Level 3 State Meet Naperville Gymnastics Club 4 3 Child A 9.350 18 9.150 8 9.250 7 9.425 8 37.175 9
2014-02-15 BIG Dream Classic 2014 Naperville Gymnastics Club 4A 3 Child A 9.100 4T 8.700 4T 9.400 1 9.100 4T 36.300 3
2014-01-31 World Class Gateway Challenge Naperville Gymnastics Club 7A 3 6&7 years 8.450 11 7.675 14 9.075 4 9.050 6 34.250 10
2014-01-17 2014 Bravo Classic Naperville Gymnastics Club 6B 3 5-7yrs 8.875 3 8.575 3 9.175 4 8.650 1 35.275 2
2013-12-19 2013 Hawaiian Pineapple Classic Naperville Gymnastics Club B9 3 6-7 8.900 7 8.900 1 8.450 3 9.100 3 35.350 1
Get your scores on
a t-shirt, pin, or hoodie